createdAt,value
2023-10-23T00:01:22.583Z,24.7
2023-10-23T00:06:40.642Z,24.8
2023-10-23T00:11:59.187Z,24.8
2023-10-23T00:17:17.758Z,24.8
2023-10-23T00:22:36.264Z,24.8
2023-10-23T00:27:54.634Z,24.8
2023-10-23T00:33:13.331Z,24.7
2023-10-23T00:38:32.115Z,24.8
2023-10-23T00:43:50.431Z,24.8
2023-10-23T00:49:08.824Z,24.8
2023-10-23T00:54:27.249Z,24.8
2023-10-23T00:59:45.607Z,24.8
2023-10-23T01:05:03.924Z,24.8
2023-10-23T01:10:22.113Z,24.8
2023-10-23T01:15:40.702Z,24.8
2023-10-23T01:20:59.012Z,24.8
2023-10-23T01:26:17.131Z,24.7
2023-10-23T01:31:35.486Z,24.7
2023-10-23T01:36:53.582Z,24.7
2023-10-23T01:42:11.532Z,24.7
2023-10-23T01:47:30.047Z,24.7
2023-10-23T01:52:48.350Z,24.8
2023-10-23T01:58:06.522Z,24.7
2023-10-23T02:03:24.914Z,24.8
2023-10-23T02:08:43.451Z,24.8
2023-10-23T02:14:01.966Z,24.7
2023-10-23T02:19:20.136Z,24.8
2023-10-23T02:24:39.030Z,24.8
2023-10-23T02:29:57.706Z,24.8
2023-10-23T02:35:16.237Z,24.8
2023-10-23T02:40:34.943Z,24.8
2023-10-23T02:45:37.843Z,24.8
2023-10-23T02:50:55.801Z,24.8
2023-10-23T02:56:14.140Z,24.8
2023-10-23T03:01:32.582Z,24.8
2023-10-23T03:06:50.902Z,24.9
2023-10-23T03:12:09.397Z,24.9
2023-10-23T03:17:27.966Z,24.9
2023-10-23T03:22:46.521Z,24.9
2023-10-23T03:28:04.757Z,24.9
2023-10-23T03:33:22.927Z,24.9
2023-10-23T03:38:41.365Z,24.9
2023-10-23T03:43:59.839Z,24.9
2023-10-23T03:49:18.289Z,24.9
2023-10-23T03:54:36.525Z,24.9
2023-10-23T03:59:54.659Z,24.9
2023-10-23T04:05:12.578Z,24.9
2023-10-23T04:10:30.514Z,24.9
2023-10-23T04:15:48.839Z,24.9
2023-10-23T04:21:06.964Z,24.9
2023-10-23T04:26:25.454Z,24.9
2023-10-23T04:31:26.621Z,25
2023-10-23T04:36:45.188Z,25
2023-10-23T04:42:03.526Z,25
2023-10-23T04:47:21.894Z,24.9
2023-10-23T04:52:40.049Z,24.9
2023-10-23T04:57:58.472Z,24.9
2023-10-23T05:03:16.666Z,24.9
2023-10-23T05:08:35.017Z,24.9
2023-10-23T05:13:52.912Z,24.9
2023-10-23T05:19:11.573Z,24.9
2023-10-23T05:24:30.010Z,24.9
2023-10-23T05:29:48.157Z,24.9
2023-10-23T05:35:06.534Z,24.9
2023-10-23T05:40:24.668Z,24.9
2023-10-23T05:45:43.447Z,24.9
2023-10-23T05:51:01.617Z,24.9
2023-10-23T05:56:19.893Z,24.9
2023-10-23T06:01:38.079Z,24.9
2023-10-23T06:06:56.595Z,24.9
2023-10-23T06:12:15.005Z,24.9
2023-10-23T06:17:33.197Z,24.9
2023-10-23T06:22:51.731Z,24.9
2023-10-23T06:28:10.102Z,24.9
2023-10-23T06:33:28.656Z,25
2023-10-23T06:38:47.040Z,25
2023-10-23T06:44:05.542Z,25
2023-10-23T06:49:23.712Z,25
2023-10-23T06:54:42.309Z,24.9
2023-10-23T07:00:00.364Z,24.9
2023-10-23T07:05:18.753Z,24.8
2023-10-23T07:10:37.444Z,24.9
2023-10-23T07:15:56.018Z,24.9
2023-10-23T07:21:16.832Z,24.9
2023-10-23T07:26:34.982Z,24.8
2023-10-23T07:31:53.172Z,24.8
2023-10-23T07:37:11.356Z,24.8
2023-10-23T07:42:29.488Z,24.8
2023-10-23T07:47:47.871Z,24.8
2023-10-23T07:53:06.418Z,24.8
2023-10-23T07:58:25.137Z,24.8
2023-10-23T08:03:43.950Z,24.8
2023-10-23T08:09:02.643Z,24.8
2023-10-23T08:14:21.018Z,24.8
2023-10-23T08:19:23.819Z,24.8
2023-10-23T08:24:42.073Z,24.8
2023-10-23T08:30:00.572Z,24.8
2023-10-23T08:35:18.790Z,24.8
2023-10-23T08:40:36.919Z,24.9
2023-10-23T08:45:55.339Z,24.9
2023-10-23T08:51:13.943Z,24.9
2023-10-23T08:56:32.286Z,24.9
2023-10-23T09:01:50.939Z,25
2023-10-23T09:07:09.412Z,25
2023-10-23T09:12:27.581Z,25
2023-10-23T09:17:45.768Z,25.1
2023-10-23T09:23:04.435Z,25.1
2023-10-23T09:28:22.696Z,25.2
2023-10-23T09:33:41.528Z,25.2
2023-10-23T09:39:00.397Z,25.2
2023-10-23T09:44:19.031Z,25.2
2023-10-23T09:49:37.978Z,25.3
2023-10-23T09:54:56.529Z,25.3
2023-10-23T10:00:14.879Z,25.3
2023-10-23T10:05:33.429Z,25.3
2023-10-23T10:10:51.978Z,25.3
2023-10-23T10:16:10.285Z,25.3
2023-10-23T10:21:29.178Z,25.4
2023-10-23T10:26:47.497Z,25.3
2023-10-23T10:32:15.519Z,25.4
2023-10-23T10:37:34.211Z,25.4
2023-10-23T10:42:52.744Z,25.4
2023-10-23T10:48:11.400Z,25.4
2023-10-23T10:53:29.998Z,25.4
2023-10-23T10:58:48.120Z,25.4
2023-10-23T11:04:06.666Z,25.4
2023-10-23T11:09:25.090Z,25.4
2023-10-23T11:14:43.458Z,25.4
2023-10-23T11:20:01.394Z,25.4
2023-10-23T11:25:19.935Z,25.4
2023-10-23T11:30:38.300Z,25.4
2023-10-23T11:35:58.146Z,25.4
2023-10-23T11:41:16.625Z,25.4
2023-10-23T11:46:36.375Z,25.4
2023-10-23T11:51:55.219Z,25.4
2023-10-23T11:57:13.470Z,25.4
2023-10-23T12:02:32.518Z,25.4
2023-10-23T12:07:50.828Z,25.4
2023-10-23T12:13:09.528Z,25.4
2023-10-23T12:18:28.218Z,25.4
2023-10-23T12:23:46.772Z,25.4
2023-10-23T12:29:05.333Z,25.3
2023-10-23T12:34:23.819Z,25.3
2023-10-23T12:39:42.578Z,25.3
2023-10-23T12:45:00.909Z,25.3
2023-10-23T12:50:19.093Z,25.3
2023-10-23T12:55:37.231Z,25.3
2023-10-23T13:00:55.440Z,25.3
2023-10-23T13:06:13.730Z,25.3
2023-10-23T13:11:31.683Z,25.2
2023-10-23T13:16:50.412Z,25.3
2023-10-23T13:22:12.289Z,25.2
2023-10-23T13:27:30.416Z,25.2
2023-10-23T13:32:49.024Z,25.2
2023-10-23T13:38:08.067Z,25.2
2023-10-23T13:43:26.761Z,25.2
2023-10-23T13:48:51.894Z,25.2
2023-10-23T13:54:10.216Z,25.2
2023-10-23T13:59:28.538Z,25.2
2023-10-23T14:04:46.744Z,25.2
2023-10-23T14:10:05.343Z,25.1
2023-10-23T14:15:23.784Z,25.1
2023-10-23T14:20:42.131Z,25.1
2023-10-23T14:26:00.458Z,25.1
2023-10-23T14:31:18.843Z,25.1
2023-10-23T14:36:36.993Z,25.1
2023-10-23T14:41:55.094Z,25.1
2023-10-23T14:46:58.193Z,25.1
2023-10-23T14:52:16.847Z,25.1
2023-10-23T14:57:35.322Z,25.1
2023-10-23T15:02:53.832Z,25
2023-10-23T15:08:12.053Z,25
2023-10-23T15:13:30.199Z,25
2023-10-23T15:18:48.588Z,25
2023-10-23T15:24:06.784Z,25
2023-10-23T15:29:24.729Z,25
2023-10-23T15:34:42.833Z,25
2023-10-23T15:40:01.512Z,25
2023-10-23T15:45:20.792Z,25
2023-10-23T15:50:38.719Z,25
2023-10-23T15:55:57.243Z,25
2023-10-23T16:01:15.747Z,25
2023-10-23T16:06:34.103Z,25
2023-10-23T16:11:52.595Z,25
2023-10-23T16:17:10.935Z,24.9
2023-10-23T16:22:29.105Z,24.9
2023-10-23T16:27:47.766Z,24.9
2023-10-23T16:32:50.925Z,24.9
2023-10-23T16:38:09.450Z,24.8
2023-10-23T16:43:27.800Z,24.9
2023-10-23T16:48:46.472Z,24.9
2023-10-23T16:54:05.078Z,24.9
2023-10-23T16:59:28.644Z,24.9
2023-10-23T17:04:58.461Z,24.9
2023-10-23T17:10:17.100Z,24.9
2023-10-23T17:15:35.975Z,24.9
2023-10-23T17:20:54.516Z,24.9
2023-10-23T17:26:12.639Z,24.9
2023-10-23T17:31:31.283Z,24.9
2023-10-23T17:36:49.389Z,24.8
2023-10-23T17:42:07.912Z,24.8
2023-10-23T17:47:26.265Z,24.8
2023-10-23T17:52:45.052Z,24.8
2023-10-23T17:58:03.488Z,24.8
2023-10-23T18:03:22.268Z,24.9
2023-10-23T18:08:40.970Z,24.8
2023-10-23T18:13:59.330Z,24.8
2023-10-23T18:19:19.400Z,24.8
2023-10-23T18:24:38.152Z,24.8
2023-10-23T18:29:56.424Z,24.8
2023-10-23T18:35:15.024Z,24.8
2023-10-23T18:40:36.431Z,24.8
2023-10-23T18:45:54.804Z,24.8
2023-10-23T18:51:14.021Z,24.8
2023-10-23T18:56:32.314Z,24.8
2023-10-23T19:01:50.683Z,24.8
2023-10-23T19:07:09.271Z,24.8
2023-10-23T19:12:27.382Z,24.8
2023-10-23T19:17:45.762Z,24.8
2023-10-23T19:23:04.422Z,24.8
2023-10-23T19:28:22.822Z,24.8
2023-10-23T19:33:41.327Z,24.8
2023-10-23T19:38:59.765Z,24.8
2023-10-23T19:44:18.268Z,24.8
2023-10-23T19:49:36.690Z,24.8
2023-10-23T19:55:05.964Z,24.8
2023-10-23T20:01:05.541Z,24.8
2023-10-23T20:06:23.669Z,24.8
2023-10-23T20:11:42.062Z,24.8
2023-10-23T20:17:00.340Z,24.8
2023-10-23T20:22:19.420Z,24.8
2023-10-23T20:27:38.117Z,24.8
2023-10-23T20:32:56.608Z,24.9
2023-10-23T20:38:14.801Z,24.8
2023-10-23T20:43:33.106Z,24.8
2023-10-23T20:48:51.232Z,24.9
2023-10-23T20:54:09.566Z,24.8
2023-10-23T20:59:27.760Z,24.8
2023-10-23T21:04:46.078Z,24.8
2023-10-23T21:10:04.604Z,24.8
2023-10-23T21:15:23.042Z,24.8
2023-10-23T21:20:41.157Z,24.8
2023-10-23T21:25:59.565Z,24.8
2023-10-23T21:31:18.223Z,24.8
2023-10-23T21:36:36.476Z,24.8
2023-10-23T21:41:55.682Z,24.8
2023-10-23T21:47:13.891Z,24.8
2023-10-23T21:52:32.317Z,24.8
2023-10-23T21:57:50.712Z,24.8
2023-10-23T22:03:09.242Z,24.8
2023-10-23T22:08:27.346Z,24.8
2023-10-23T22:13:45.983Z,24.8
2023-10-23T22:18:51.553Z,24.8
2023-10-23T22:24:09.915Z,24.8
2023-10-23T22:29:28.201Z,24.8
2023-10-23T22:34:46.667Z,24.8
2023-10-23T22:40:05.173Z,24.8
2023-10-23T22:45:23.396Z,24.8
2023-10-23T22:50:41.981Z,24.8
2023-10-23T22:56:00.541Z,24.8
2023-10-23T23:01:18.778Z,24.7
2023-10-23T23:06:37.103Z,24.7
2023-10-23T23:11:55.253Z,24.7
2023-10-23T23:16:58.137Z,24.8
2023-10-23T23:22:17.145Z,24.8
2023-10-23T23:27:35.682Z,24.8
2023-10-23T23:32:54.051Z,24.8
2023-10-23T23:38:12.355Z,24.8
2023-10-23T23:43:30.381Z,24.8
2023-10-23T23:48:48.543Z,24.8
2023-10-23T23:54:06.512Z,24.8
2023-10-23T23:59:24.754Z,24.8
